Time;durP1;ratioP1;P1;durP2;ratioP2;P2;SDS_P1;SDS_P2;PMS_P1;PMS_P2;Temp;Humidity;BMP_temperature;BMP_pressure;BME280_temperature;BME280_humidity;BME280_pressure;Samples;Min_cycle;Max_cycle;Signal;HPM_P1;HPM_P2
2021/08/12 00:01:14;;;;;;;2.22;1.40;;;26.60;53.70;;;;;;5046939;28;20376;-63
2021/08/12 00:03:40;;;;;;;2.22;1.40;;;26.70;53.80;;;;;;5048359;28;20119;-64
2021/08/12 00:06:05;;;;;;;2.30;1.70;;;26.60;53.70;;;;;;5056205;28;20028;-63
2021/08/12 00:08:31;;;;;;;2.15;1.40;;;26.60;53.70;;;;;;5048427;28;20118;-62
2021/08/12 00:10:57;;;;;;;1.77;1.20;;;26.60;53.70;;;;;;5046877;28;20057;-63
2021/08/12 00:13:22;;;;;;;2.42;1.30;;;26.60;53.70;;;;;;5046687;28;20792;-62
2021/08/12 00:15:48;;;;;;;2.10;1.20;;;26.60;53.80;;;;;;5044653;28;20410;-63
2021/08/12 00:18:14;;;;;;;2.10;1.20;;;26.60;53.70;;;;;;5042103;28;20052;-64
2021/08/12 00:20:40;;;;;;;3.20;1.40;;;26.60;53.70;;;;;;5044705;28;20029;-64
2021/08/12 00:23:06;;;;;;;2.15;1.50;;;26.60;53.70;;;;;;5049278;28;20021;-65
2021/08/12 00:25:32;;;;;;;2.15;1.42;;;26.60;53.80;;;;;;5044652;28;20434;-62
2021/08/12 00:27:57;;;;;;;1.85;1.40;;;26.60;53.80;;;;;;5047437;28;20098;-62
2021/08/12 00:30:23;;;;;;;1.70;1.17;;;26.60;53.70;;;;;;5048772;28;20029;-62
2021/08/12 00:32:49;;;;;;;2.78;1.45;;;26.60;53.80;;;;;;5046259;28;20032;-63
2021/08/12 00:35:15;;;;;;;2.10;1.33;;;26.60;53.80;;;;;;5047561;28;20513;-62
2021/08/12 00:37:41;;;;;;;1.90;1.30;;;26.50;53.70;;;;;;5053950;28;20064;-62
2021/08/12 00:40:08;;;;;;;2.17;1.38;;;26.50;53.70;;;;;;5048614;28;20021;-64
2021/08/12 00:42:34;;;;;;;2.20;1.42;;;26.60;53.80;;;;;;5047877;28;20550;-60
2021/08/12 00:45:00;;;;;;;2.28;1.40;;;26.50;53.70;;;;;;5046959;28;20021;-61
2021/08/12 00:47:26;;;;;;;1.92;1.20;;;26.50;53.70;;;;;;5054173;28;20043;-63
2021/08/12 00:49:51;;;;;;;2.92;1.48;;;26.50;53.70;;;;;;5046990;28;20228;-63
2021/08/12 00:52:18;;;;;;;1.70;1.20;;;26.50;53.70;;;;;;5047838;28;20026;-63
2021/08/12 00:54:44;;;;;;;2.47;1.30;;;26.50;53.80;;;;;;5050169;28;20667;-69
2021/08/12 00:57:10;;;;;;;1.58;1.15;;;26.50;53.80;;;;;;5064401;28;20047;-62
2021/08/12 00:59:37;;;;;;;1.90;1.38;;;26.50;53.80;;;;;;5046875;28;20246;-62
2021/08/12 01:02:06;;;;;;;2.03;1.50;;;26.50;53.80;;;;;;5043411;28;20039;-63
2021/08/12 01:04:31;;;;;;;;;;;26.50;53.80;;;;;;5053796;28;20025;-68
2021/08/12 01:07:09;;;;;;;1.70;1.20;;;26.40;53.70;;;;;;5035853;28;19909;-62
2021/08/12 01:09:44;;;;;;;2.22;1.20;;;26.50;53.80;;;;;;5038591;28;20036;-63
2021/08/12 01:12:20;;;;;;;1.98;1.35;;;26.50;53.80;;;;;;5066083;28;20032;-68
2021/08/12 01:14:58;;;;;;;1.73;1.35;;;26.40;53.70;;;;;;5044546;28;20031;-67
2021/08/12 01:17:29;;;;;;;2.42;1.30;;;26.50;53.80;;;;;;5046983;28;20033;-61
2021/08/12 01:20:10;;;;;;;1.80;1.20;;;26.40;53.80;;;;;;5047024;28;20049;-68
2021/08/12 01:22:41;;;;;;;1.88;1.23;;;26.40;53.80;;;;;;5045722;28;20033;-68
2021/08/12 01:25:13;;;;;;;1.73;1.20;;;26.40;53.80;;;;;;5056549;28;20053;-68
2021/08/12 01:27:42;;;;;;;1.60;1.25;;;26.40;53.80;;;;;;5047121;28;20092;-68
2021/08/12 01:30:12;;;;;;;;;;;26.40;53.80;;;;;;5063092;28;20064;-68
2021/08/12 01:33:35;;;;;;;2.42;1.40;;;26.40;53.80;;;;;;5060784;28;19912;-69
2021/08/12 01:36:03;;;;;;;2.20;1.35;;;26.40;53.80;;;;;;4984146;28;20034;-68
2021/08/12 01:38:30;;;;;;;2.05;1.30;;;26.40;53.80;;;;;;4985162;28;20032;-68
2021/08/12 01:40:58;;;;;;;2.40;1.48;;;26.30;53.80;;;;;;5005022;28;20039;-61
2021/08/12 01:43:23;;;;;;;1.83;1.20;;;26.30;53.80;;;;;;5032038;28;20064;-63
2021/08/12 01:45:52;;;;;;;2.00;1.48;;;26.30;53.80;;;;;;5048999;28;20029;-63
2021/08/12 01:48:19;;;;;;;2.25;1.80;;;26.30;53.80;;;;;;5033768;28;20040;-63
2021/08/12 01:50:46;;;;;;;2.10;1.30;;;26.30;53.80;;;;;;5058771;28;20392;-64
2021/08/12 01:53:12;;;;;;;2.25;1.40;;;26.30;53.90;;;;;;5046306;28;20041;-60
2021/08/12 01:55:38;;;;;;;3.03;1.30;;;26.30;53.80;;;;;;5045631;28;20534;-69
2021/08/12 01:58:05;;;;;;;2.05;1.40;;;26.30;53.80;;;;;;5034119;28;20029;-62
2021/08/12 02:00:32;;;;;;;2.15;1.35;;;26.30;53.80;;;;;;5037428;28;20041;-63
2021/08/12 02:02:59;;;;;;;2.30;1.48;;;26.30;53.80;;;;;;5046364;28;20021;-63
2021/08/12 02:05:26;;;;;;;2.15;1.55;;;26.30;53.80;;;;;;5060019;28;20021;-62
2021/08/12 02:07:52;;;;;;;2.25;1.30;;;26.30;53.80;;;;;;5043571;28;20497;-61
2021/08/12 02:10:18;;;;;;;2.03;1.45;;;26.30;53.90;;;;;;5045840;28;20435;-62
2021/08/12 02:12:45;;;;;;;2.67;1.48;;;26.30;53.90;;;;;;5039811;28;20043;-63
2021/08/12 02:15:12;;;;;;;2.00;1.30;;;26.20;53.80;;;;;;5043458;28;20454;-62
2021/08/12 02:17:38;;;;;;;2.20;1.20;;;26.30;53.80;;;;;;5046480;28;20111;-64
2021/08/12 02:20:07;;;;;;;1.83;1.25;;;26.20;53.80;;;;;;5041031;28;20126;-62
2021/08/12 02:22:49;;;;;;;2.25;1.30;;;26.30;53.90;;;;;;5066891;28;20021;-63
2021/08/12 02:25:30;;;;;;;2.13;1.45;;;26.20;53.80;;;;;;5048284;28;20036;-63
2021/08/12 02:27:57;;;;;;;2.15;1.40;;;26.20;53.80;;;;;;5045586;28;20052;-63
2021/08/12 02:30:23;;;;;;;1.83;1.40;;;26.20;53.80;;;;;;5045619;28;20074;-62
2021/08/12 02:32:51;;;;;;;2.28;1.50;;;26.20;53.80;;;;;;5055060;28;20029;-68
2021/08/12 02:35:19;;;;;;;1.58;1.30;;;26.20;53.80;;;;;;5052630;28;20056;-63
2021/08/12 02:37:47;;;;;;;2.20;1.50;;;26.20;53.90;;;;;;5045406;28;20029;-62
2021/08/12 02:40:13;;;;;;;1.73;1.30;;;26.20;53.90;;;;;;5043944;28;20021;-64
2021/08/12 02:42:42;;;;;;;2.65;1.70;;;26.20;53.90;;;;;;5045153;28;20025;-63
2021/08/12 02:45:09;;;;;;;2.00;1.30;;;26.20;53.90;;;;;;5046333;28;20087;-63
2021/08/12 02:47:36;;;;;;;1.92;1.40;;;26.20;53.90;;;;;;5045829;28;20484;-60
2021/08/12 02:50:04;;;;;;;2.13;1.50;;;26.20;53.90;;;;;;5044053;28;20028;-61
2021/08/12 02:52:33;;;;;;;1.92;1.40;;;26.20;53.90;;;;;;5046207;28;20025;-69
2021/08/12 02:54:59;;;;;;;2.03;1.33;;;26.20;53.90;;;;;;5045713;28;20040;-68
2021/08/12 02:57:25;;;;;;;1.95;1.40;;;26.20;53.90;;;;;;5043729;28;20032;-68
2021/08/12 02:59:52;;;;;;;2.40;1.23;;;26.20;53.90;;;;;;5044996;28;20120;-69
2021/08/12 03:02:20;;;;;;;2.40;1.50;;;26.20;53.90;;;;;;5042505;28;20045;-63
2021/08/12 03:04:45;;;;;;;1.95;1.40;;;26.20;53.90;;;;;;5043724;28;20036;-62
2021/08/12 03:07:12;;;;;;;2.10;1.50;;;26.10;53.90;;;;;;5054044;28;20558;-61
2021/08/12 03:09:39;;;;;;;1.90;1.38;;;26.10;53.90;;;;;;5044124;28;20839;-67
2021/08/12 03:12:07;;;;;;;1.92;1.27;;;26.10;53.90;;;;;;5045828;28;20487;-62
2021/08/12 03:14:35;;;;;;;1.90;1.50;;;26.10;53.90;;;;;;5039156;28;20098;-62
2021/08/12 03:17:02;;;;;;;1.90;1.40;;;26.10;53.90;;;;;;5044524;28;20024;-62
2021/08/12 03:19:28;;;;;;;2.20;1.50;;;26.10;53.90;;;;;;5043947;28;20598;-62
2021/08/12 03:22:05;;;;;;;2.10;1.60;;;26.10;53.90;;;;;;5044006;28;20029;-61
2021/08/12 03:24:34;;;;;;;2.15;1.40;;;26.10;53.90;;;;;;5030278;28;20026;-64
2021/08/12 03:27:00;;;;;;;3.30;1.70;;;26.10;53.90;;;;;;5029487;28;20083;-63
2021/08/12 03:29:25;;;;;;;1.98;1.35;;;26.10;53.90;;;;;;5040075;28;20041;-64
2021/08/12 03:31:51;;;;;;;2.42;1.70;;;26.10;53.90;;;;;;5049517;28;20120;-66
2021/08/12 03:34:17;;;;;;;2.40;1.60;;;26.10;53.90;;;;;;5040591;28;20040;-69
2021/08/12 03:36:43;;;;;;;1.73;1.30;;;26.10;53.90;;;;;;5046937;28;20095;-64
2021/08/12 03:39:09;;;;;;;2.42;1.58;;;26.10;53.90;;;;;;5044070;28;20308;-63
2021/08/12 03:41:34;;;;;;;1.98;1.40;;;26.10;53.90;;;;;;5036971;28;20542;-62
2021/08/12 03:44:00;;;;;;;2.25;1.45;;;26.00;53.80;;;;;;5046128;28;20025;-62
2021/08/12 03:46:26;;;;;;;2.00;1.40;;;26.00;53.90;;;;;;5048987;28;20100;-63
2021/08/12 03:48:51;;;;;;;2.28;1.40;;;26.00;53.90;;;;;;5046788;28;20052;-63
2021/08/12 03:51:17;;;;;;;2.15;1.50;;;26.00;53.90;;;;;;5042475;28;20040;-63
2021/08/12 03:53:43;;;;;;;1.73;1.27;;;26.00;53.90;;;;;;5044063;28;20191;-62
2021/08/12 03:56:08;;;;;;;1.60;1.20;;;26.00;53.90;;;;;;5045549;28;20476;-63
2021/08/12 03:58:34;;;;;;;2.30;1.58;;;26.00;53.90;;;;;;5045786;28;20388;-63
2021/08/12 04:00:59;;;;;;;2.17;1.30;;;26.00;53.90;;;;;;5042762;28;20064;-63
2021/08/12 04:03:25;;;;;;;1.98;1.40;;;26.00;53.90;;;;;;5042332;28;20488;-63
2021/08/12 04:05:52;;;;;;;1.80;1.30;;;26.00;53.90;;;;;;5041652;28;20420;-63
2021/08/12 04:08:17;;;;;;;2.08;1.40;;;26.00;53.90;;;;;;5042355;28;20036;-62
2021/08/12 04:10:43;;;;;;;2.45;1.50;;;26.00;53.90;;;;;;5051547;28;20033;-63
2021/08/12 04:13:09;;;;;;;2.35;1.58;;;26.00;53.90;;;;;;5055613;28;20061;-61
2021/08/12 04:15:34;;;;;;;2.00;1.40;;;26.00;53.90;;;;;;5046781;28;20065;-64
2021/08/12 04:18:00;;;;;;;2.00;1.52;;;26.00;53.90;;;;;;5048264;28;20063;-63
2021/08/12 04:20:26;;;;;;;2.30;1.40;;;26.00;53.90;;;;;;5046717;28;20098;-64
2021/08/12 04:22:52;;;;;;;2.28;1.35;;;26.00;53.90;;;;;;5045946;28;20358;-63
2021/08/12 04:25:18;;;;;;;1.92;1.30;;;26.00;53.90;;;;;;5050877;28;20082;-64
2021/08/12 04:27:43;;;;;;;2.38;1.52;;;25.90;53.90;;;;;;5050405;28;20469;-63
2021/08/12 04:30:10;;;;;;;2.08;1.40;;;25.90;53.90;;;;;;5047794;28;20373;-63
2021/08/12 04:32:36;;;;;;;1.70;1.40;;;25.90;53.90;;;;;;5044462;28;20481;-68
2021/08/12 04:35:03;;;;;;;2.60;1.50;;;25.90;53.90;;;;;;5045220;28;20095;-68
2021/08/12 04:37:43;;;;;;;2.20;1.50;;;25.90;53.90;;;;;;5049973;28;20353;-62
2021/08/12 04:40:10;;;;;;;2.10;1.40;;;25.90;53.90;;;;;;5033752;28;20029;-69
2021/08/12 04:42:35;;;;;;;1.83;1.40;;;25.90;53.90;;;;;;5038663;28;20052;-62
2021/08/12 04:45:01;;;;;;;2.13;1.50;;;25.90;53.90;;;;;;5046497;28;20079;-62
2021/08/12 04:47:28;;;;;;;2.72;1.50;;;25.90;53.90;;;;;;5045530;28;20531;-63
2021/08/12 04:49:54;;;;;;;2.40;1.70;;;25.80;52.70;;;;;;5046292;28;20117;-67
2021/08/12 04:52:19;;;;;;;2.20;1.52;;;25.80;52.00;;;;;;5044789;28;20152;-62
2021/08/12 04:54:45;;;;;;;2.70;1.88;;;25.80;51.40;;;;;;5044484;28;20517;-62
2021/08/12 04:57:10;;;;;;;3.15;1.77;;;25.80;50.50;;;;;;5028819;28;20120;-63
2021/08/12 04:59:36;;;;;;;2.58;1.92;;;25.70;50.40;;;;;;5043916;28;20628;-62
2021/08/12 05:02:02;;;;;;;3.30;2.10;;;25.70;50.50;;;;;;5046475;28;20064;-67
2021/08/12 05:04:28;;;;;;;3.40;2.00;;;25.70;50.20;;;;;;5052714;28;20041;-68
2021/08/12 05:06:53;;;;;;;2.72;1.70;;;25.60;50.20;;;;;;5033399;28;20060;-60
2021/08/12 05:09:19;;;;;;;3.65;2.08;;;25.60;50.20;;;;;;5044184;28;20136;-65
2021/08/12 05:11:44;;;;;;;2.85;1.73;;;25.60;50.10;;;;;;5042490;28;20350;-67
2021/08/12 05:14:10;;;;;;;3.33;2.10;;;25.50;50.20;;;;;;5046518;28;20032;-61
2021/08/12 05:16:36;;;;;;;3.65;2.03;;;25.50;50.30;;;;;;5043448;28;20496;-63
2021/08/12 05:19:01;;;;;;;4.18;2.45;;;25.40;50.30;;;;;;5040342;28;20082;-64
2021/08/12 05:21:27;;;;;;;4.18;2.00;;;25.40;50.60;;;;;;5041289;28;20034;-63
2021/08/12 05:23:52;;;;;;;4.15;2.50;;;25.30;50.90;;;;;;5034073;28;20020;-61
2021/08/12 05:26:18;;;;;;;3.60;2.15;;;25.30;51.10;;;;;;5044881;28;20040;-62
2021/08/12 05:28:44;;;;;;;3.20;2.22;;;25.20;51.20;;;;;;5042807;28;20029;-63
2021/08/12 05:31:09;;;;;;;4.70;2.10;;;25.20;51.30;;;;;;5042054;28;20323;-61
2021/08/12 05:33:36;;;;;;;3.70;2.45;;;25.20;51.40;;;;;;5026544;28;20057;-68
2021/08/12 05:36:03;;;;;;;3.63;2.30;;;25.20;51.80;;;;;;5031582;28;20469;-63
2021/08/12 05:38:28;;;;;;;3.85;2.40;;;25.10;51.90;;;;;;5045062;28;20029;-62
2021/08/12 05:40:56;;;;;;;3.72;2.22;;;25.10;51.90;;;;;;5042040;28;20124;-62
2021/08/12 05:43:21;;;;;;;4.88;2.28;;;25.20;52.00;;;;;;5044694;28;20060;-61
2021/08/12 05:45:47;;;;;;;4.30;2.50;;;25.20;52.10;;;;;;5042096;28;20037;-63
2021/08/12 05:48:13;;;;;;;3.58;2.67;;;25.20;52.20;;;;;;5044541;28;20033;-64
2021/08/12 05:50:44;;;;;;;4.18;2.60;;;25.10;52.20;;;;;;5048554;28;20029;-63
2021/08/12 05:53:20;;;;;;;4.32;2.90;;;25.10;52.40;;;;;;5042386;28;20477;-68
2021/08/12 05:55:46;;;;;;;3.78;2.70;;;25.10;52.60;;;;;;5052143;28;20052;-62
2021/08/12 05:58:11;;;;;;;3.20;2.45;;;25.10;52.80;;;;;;5044800;28;20083;-63
2021/08/12 06:00:37;;;;;;;4.20;2.60;;;25.10;53.00;;;;;;5046349;28;20199;-67
2021/08/12 06:03:06;;;;;;;3.92;2.42;;;25.10;53.20;;;;;;5043478;28;20028;-63
2021/08/12 06:05:32;;;;;;;3.90;2.70;;;25.10;53.30;;;;;;5044082;28;20045;-68
2021/08/12 06:08:00;;;;;;;3.60;2.47;;;25.10;53.50;;;;;;5041592;28;20029;-62
2021/08/12 06:10:26;;;;;;;4.28;2.50;;;25.00;53.60;;;;;;5044131;28;20554;-63
2021/08/12 06:12:53;;;;;;;4.10;2.60;;;25.00;53.70;;;;;;5045181;28;20044;-63
2021/08/12 06:15:19;;;;;;;4.60;2.80;;;25.00;54.40;;;;;;5044708;28;20029;-61
2021/08/12 06:17:45;;;;;;;3.72;2.58;;;25.00;54.00;;;;;;5044931;28;20029;-60
2021/08/12 06:20:11;;;;;;;3.95;3.10;;;25.00;54.00;;;;;;5042878;28;20049;-63
2021/08/12 06:22:37;;;;;;;5.03;2.83;;;25.00;54.10;;;;;;5043081;28;20373;-63
2021/08/12 06:25:04;;;;;;;3.92;2.50;;;24.90;54.10;;;;;;5044085;28;20028;-68
2021/08/12 06:27:29;;;;;;;3.80;2.63;;;24.90;54.40;;;;;;5030017;28;20029;-62
2021/08/12 06:29:55;;;;;;;3.88;2.67;;;24.90;54.60;;;;;;5032853;28;20056;-67
2021/08/12 06:32:20;;;;;;;3.80;2.60;;;24.80;54.60;;;;;;5041286;28;20043;-61
2021/08/12 06:34:46;;;;;;;3.83;2.80;;;24.80;54.70;;;;;;5042004;28;20029;-67
2021/08/12 06:37:12;;;;;;;4.13;2.90;;;24.80;54.60;;;;;;5050649;28;20115;-63
2021/08/12 06:39:37;;;;;;;3.75;2.60;;;24.80;54.60;;;;;;5044264;28;20103;-62
2021/08/12 06:42:04;;;;;;;3.40;2.75;;;24.80;54.60;;;;;;5039079;28;20056;-63
2021/08/12 06:44:30;;;;;;;4.20;2.88;;;24.80;54.70;;;;;;5043999;28;20017;-63
2021/08/12 06:46:56;;;;;;;4.60;2.30;;;24.80;54.70;;;;;;5044928;28;20569;-64
2021/08/12 06:49:21;;;;;;;3.40;2.55;;;24.80;54.80;;;;;;5048491;28;20054;-65
2021/08/12 06:51:47;;;;;;;4.72;2.97;;;24.80;54.90;;;;;;5049711;28;20507;-62
2021/08/12 06:54:12;;;;;;;3.25;2.33;;;24.80;54.90;;;;;;5045760;28;20132;-63
2021/08/12 06:56:38;;;;;;;4.43;2.40;;;24.80;54.90;;;;;;5042606;28;20029;-63
2021/08/12 06:59:04;;;;;;;3.97;2.38;;;24.80;54.90;;;;;;5045544;28;20017;-64
2021/08/12 07:01:30;;;;;;;3.28;2.22;;;24.80;54.80;;;;;;5051403;28;20025;-63
2021/08/12 07:03:58;;;;;;;3.97;2.53;;;24.80;55.30;;;;;;5044184;28;20029;-62
2021/08/12 07:06:23;;;;;;;3.03;2.22;;;24.80;54.70;;;;;;5046225;28;20052;-67
2021/08/12 07:08:52;;;;;;;2.75;2.13;;;24.80;54.70;;;;;;5044856;28;20123;-63
2021/08/12 07:11:18;;;;;;;3.20;2.33;;;24.80;54.70;;;;;;5055743;28;20024;-67
2021/08/12 07:13:46;;;;;;;3.90;2.20;;;24.80;55.20;;;;;;5048823;28;20496;-63
2021/08/12 07:16:14;;;;;;;3.10;2.15;;;24.80;55.20;;;;;;5047093;28;20033;-63
2021/08/12 07:18:43;;;;;;;3.10;2.13;;;24.80;54.70;;;;;;5051420;28;20082;-62
2021/08/12 07:21:19;;;;;;;3.67;2.33;;;24.80;54.60;;;;;;5043496;28;20029;-63
2021/08/12 07:23:46;;;;;;;3.90;2.40;;;24.90;55.10;;;;;;5046996;28;20560;-67
2021/08/12 07:26:14;;;;;;;2.65;2.17;;;24.80;54.50;;;;;;5046528;28;20325;-63
2021/08/12 07:28:40;;;;;;;3.17;2.30;;;24.90;54.60;;;;;;5055337;28;20168;-64
2021/08/12 07:31:11;;;;;;;3.35;2.08;;;24.80;54.50;;;;;;5040913;28;20040;-64
2021/08/12 07:33:37;;;;;;;3.58;2.38;;;24.90;54.60;;;;;;5042419;28;20064;-63
2021/08/12 07:36:04;;;;;;;3.70;2.38;;;24.80;54.50;;;;;;5037589;28;20103;-62
2021/08/12 07:38:30;;;;;;;2.88;2.15;;;24.80;54.50;;;;;;5044210;28;20096;-64
2021/08/12 07:40:57;;;;;;;3.25;2.17;;;24.90;54.50;;;;;;5030201;28;20159;-63
2021/08/12 07:43:23;;;;;;;3.13;2.28;;;24.90;54.50;;;;;;5042274;28;20032;-63
2021/08/12 07:45:48;;;;;;;3.40;2.40;;;24.90;54.50;;;;;;5032413;28;20516;-64
2021/08/12 07:48:14;;;;;;;2.78;2.00;;;24.80;54.50;;;;;;5046404;28;20091;-63
2021/08/12 07:50:41;;;;;;;2.80;2.00;;;24.90;54.50;;;;;;5037489;28;20377;-64
2021/08/12 07:53:06;;;;;;;4.35;2.40;;;24.80;54.40;;;;;;5045590;28;20048;-63
2021/08/12 07:55:33;;;;;;;2.83;2.17;;;24.90;54.50;;;;;;5044202;28;20029;-59
2021/08/12 07:57:58;;;;;;;2.50;1.80;;;24.90;54.50;;;;;;5047770;28;20032;-63
2021/08/12 08:00:24;;;;;;;3.17;2.20;;;24.90;54.50;;;;;;5047299;28;20044;-63
2021/08/12 08:02:50;;;;;;;4.22;2.30;;;24.90;54.50;;;;;;5046974;28;20048;-65
2021/08/12 08:05:21;;;;;;;2.90;2.22;;;24.90;54.40;;;;;;5050410;28;20033;-64
2021/08/12 08:07:49;;;;;;;2.85;2.10;;;24.90;54.50;;;;;;5046245;28;20032;-61
2021/08/12 08:10:16;;;;;;;3.08;2.25;;;24.90;54.40;;;;;;5035356;28;20033;-62
2021/08/12 08:12:42;;;;;;;3.35;2.30;;;24.90;54.40;;;;;;5044316;28;20068;-61
2021/08/12 08:15:10;;;;;;;3.20;2.10;;;24.90;54.40;;;;;;5051561;28;20452;-68
2021/08/12 08:17:36;;;;;;;2.67;2.08;;;24.90;54.50;;;;;;5055245;28;20048;-63
2021/08/12 08:20:03;;;;;;;3.20;2.17;;;24.90;54.40;;;;;;5036713;28;20033;-62
2021/08/12 08:22:28;;;;;;;2.92;2.13;;;24.90;54.40;;;;;;5039211;28;20052;-64
2021/08/12 08:24:54;;;;;;;2.78;2.05;;;24.90;54.40;;;;;;5049261;28;20025;-64
2021/08/12 08:27:20;;;;;;;3.25;2.17;;;24.90;55.00;;;;;;5047522;28;20062;-61
2021/08/12 08:29:45;;;;;;;3.00;2.03;;;24.90;54.40;;;;;;5054497;28;20021;-64
2021/08/12 08:32:11;;;;;;;3.50;2.28;;;24.90;54.40;;;;;;5054115;28;20498;-62
2021/08/12 08:34:36;;;;;;;3.17;2.20;;;24.90;54.40;;;;;;5050040;28;20132;-60
2021/08/12 08:37:02;;;;;;;3.28;2.15;;;24.90;54.40;;;;;;5047389;28;20131;-64
2021/08/12 08:39:28;;;;;;;2.80;2.08;;;24.90;54.40;;;;;;5047669;28;20025;-61
2021/08/12 08:41:54;;;;;;;3.13;2.33;;;24.90;54.40;;;;;;5029139;28;20026;-60
2021/08/12 08:44:21;;;;;;;2.80;2.17;;;24.90;54.40;;;;;;5038310;28;20041;-64
2021/08/12 08:46:47;;;;;;;2.60;2.00;;;24.90;54.40;;;;;;5046524;28;20033;-63
2021/08/12 08:49:17;;;;;;;2.60;2.00;;;24.90;54.50;;;;;;5054556;28;20028;-63
2021/08/12 08:51:43;;;;;;;2.80;2.15;;;24.90;54.50;;;;;;5036937;28;20036;-62
2021/08/12 08:54:11;;;;;;;3.13;2.20;;;24.90;54.50;;;;;;5029756;28;20026;-64
2021/08/12 08:56:40;;;;;;;2.90;2.20;;;24.90;54.50;;;;;;5041926;28;20532;-66
2021/08/12 08:59:07;;;;;;;3.70;2.17;;;25.00;54.60;;;;;;5042269;28;20056;-62
2021/08/12 09:01:34;;;;;;;3.40;2.17;;;24.90;54.50;;;;;;5042601;28;20531;-66
2021/08/12 09:04:00;;;;;;;2.95;1.85;;;25.00;54.60;;;;;;5040070;28;20033;-63
2021/08/12 09:06:26;;;;;;;3.20;2.20;;;25.00;54.60;;;;;;5049876;28;20169;-65
2021/08/12 09:08:53;;;;;;;2.67;2.10;;;25.00;54.60;;;;;;5040507;28;20438;-66
2021/08/12 09:11:19;;;;;;;3.33;2.30;;;25.00;54.60;;;;;;5049074;28;20021;-64
2021/08/12 09:13:45;;;;;;;2.80;1.90;;;25.00;54.60;;;;;;5048670;28;20377;-65
2021/08/12 09:16:39;;;;;;;2.70;2.00;;;25.00;54.60;;;;;;5049445;28;20037;-63
2021/08/12 09:19:21;;;;;;;2.83;2.15;;;25.00;54.60;;;;;;5043761;28;20033;-64
2021/08/12 09:21:52;;;;;;;4.80;2.60;;;25.00;54.60;;;;;;5049227;28;20075;-64
2021/08/12 09:24:19;;;;;;;2.95;2.03;;;25.00;54.60;;;;;;5049937;28;20086;-62
2021/08/12 09:26:45;;;;;;;3.00;2.10;;;25.00;54.60;;;;;;5045194;28;20040;-64
2021/08/12 09:29:25;;;;;;;2.50;1.90;;;25.00;54.60;;;;;;5049003;28;20380;-64
2021/08/12 09:32:01;;;;;;;;;;;25.00;54.60;;;;;;5046113;28;20587;-64
2021/08/12 09:35:05;;;;;;;3.60;2.00;;;25.00;54.60;;;;;;5048738;28;19978;-64
2021/08/12 09:37:33;;;;;;;2.72;2.00;;;25.00;54.50;;;;;;5006111;28;20040;-63
2021/08/12 09:40:03;;;;;;;2.97;1.90;;;25.00;54.50;;;;;;5046507;28;20013;-63
2021/08/12 09:42:29;;;;;;;2.72;2.17;;;25.00;54.50;;;;;;5037187;28;20033;-63
2021/08/12 09:44:55;;;;;;;2.72;1.83;;;25.00;54.50;;;;;;5043935;28;20100;-62
2021/08/12 09:47:29;;;;;;;2.90;2.10;;;25.00;54.50;;;;;;5046460;28;20044;-64
2021/08/12 09:49:59;;;;;;;3.60;2.17;;;25.10;54.60;;;;;;5050248;28;20021;-64
2021/08/12 09:52:27;;;;;;;;;;;25.00;54.50;;;;;;5045707;28;20033;-63
2021/08/12 09:55:11;;;;;;;3.22;2.40;;;25.00;54.50;;;;;;5048674;28;19909;-62
2021/08/12 09:57:43;;;;;;;3.13;2.10;;;25.10;54.60;;;;;;5050805;28;20033;-64
2021/08/12 10:00:11;;;;;;;3.00;2.00;;;25.10;54.60;;;;;;5053267;28;20555;-64
2021/08/12 10:02:37;;;;;;;2.55;1.90;;;25.10;54.50;;;;;;5048792;28;20021;-64
2021/08/12 10:05:06;;;;;;;2.90;2.10;;;25.10;54.50;;;;;;5047908;28;20060;-64
2021/08/12 10:07:44;;;;;;;3.03;2.10;;;25.10;54.50;;;;;;5048063;28;20115;-60
2021/08/12 10:10:11;;;;;;;2.75;2.00;;;25.10;54.50;;;;;;5041053;28;20060;-66
2021/08/12 10:12:42;;;;;;;2.60;1.92;;;25.10;54.50;;;;;;5045672;28;20491;-64
2021/08/12 10:15:08;;;;;;;3.05;2.00;;;25.10;54.50;;;;;;5039897;28;20060;-65
2021/08/12 10:17:34;;;;;;;2.92;1.98;;;25.10;54.50;;;;;;5043240;28;20096;-66
2021/08/12 10:20:00;;;;;;;2.90;2.00;;;25.10;54.50;;;;;;5035358;28;20025;-64
2021/08/12 10:22:26;;;;;;;2.80;1.90;;;25.10;54.50;;;;;;5048200;28;20062;-60
2021/08/12 10:24:52;;;;;;;2.47;1.70;;;25.10;54.50;;;;;;5047941;28;20103;-63
2021/08/12 10:27:18;;;;;;;2.70;2.00;;;25.10;54.50;;;;;;5044040;28;20461;-64
2021/08/12 10:29:45;;;;;;;2.65;1.88;;;25.10;54.50;;;;;;5047717;28;20067;-63
2021/08/12 10:32:15;;;;;;;2.80;2.00;;;25.10;54.50;;;;;;5042077;28;20769;-63
2021/08/12 10:34:41;;;;;;;3.08;2.28;;;25.10;54.50;;;;;;5043874;28;20033;-63
2021/08/12 10:37:10;;;;;;;2.42;1.70;;;25.10;54.40;;;;;;5045390;28;20442;-67
2021/08/12 10:39:38;;;;;;;3.60;2.10;;;25.10;54.50;;;;;;5046320;28;20017;-66
2021/08/12 10:42:06;;;;;;;3.53;1.90;;;25.10;54.40;;;;;;5035378;28;20028;-63
2021/08/12 10:44:33;;;;;;;2.00;1.42;;;25.10;54.50;;;;;;5038474;28;20056;-63
2021/08/12 10:46:59;;;;;;;2.22;1.60;;;25.20;54.60;;;;;;5041972;28;20114;-66
2021/08/12 10:49:31;;;;;;;2.20;1.60;;;25.20;54.60;;;;;;5041637;28;20032;-66
2021/08/12 10:52:05;;;;;;;1.83;1.40;;;25.30;54.60;;;;;;5046448;28;20039;-61
2021/08/12 10:54:33;;;;;;;2.42;1.58;;;25.30;54.60;;;;;;5043483;28;20037;-63
2021/08/12 10:57:21;;;;;;;2.50;1.80;;;25.30;54.60;;;;;;5045783;28;20032;-63
2021/08/12 10:59:48;;;;;;;1.92;1.45;;;25.40;54.60;;;;;;5041831;28;20061;-66
2021/08/12 11:02:29;;;;;;;2.03;1.63;;;25.40;54.50;;;;;;5045465;28;20031;-62
2021/08/12 11:05:04;;;;;;;3.35;1.80;;;25.40;54.50;;;;;;5058750;28;20021;-66
2021/08/12 11:07:39;;;;;;;2.30;1.60;;;25.40;54.40;;;;;;5044052;28;20037;-63
2021/08/12 11:10:14;;;;;;;2.53;1.58;;;25.40;54.40;;;;;;5040922;28;20024;-62
2021/08/12 11:12:52;;;;;;;1.95;1.50;;;25.50;54.40;;;;;;5043389;28;20112;-61
2021/08/12 11:15:37;;;;;;;2.13;1.58;;;25.50;54.40;;;;;;5043607;28;20043;-60
2021/08/12 11:18:04;;;;;;;4.25;2.17;;;25.50;54.40;;;;;;5039552;28;20552;-63
2021/08/12 11:20:33;;;;;;;2.20;1.60;;;25.60;54.40;;;;;;5041267;28;20017;-63
2021/08/12 11:23:19;;;;;;;2.03;1.60;;;25.60;54.40;;;;;;5047964;28;20037;-67
2021/08/12 11:25:54;;;;;;;2.30;1.70;;;25.60;54.80;;;;;;5044807;28;20456;-59
2021/08/12 11:28:38;;;;;;;2.33;1.63;;;25.60;54.20;;;;;;5047891;28;20369;-64
2021/08/12 11:31:24;;;;;;;2.17;1.35;;;25.70;54.30;;;;;;5050785;28;20055;-62
2021/08/12 11:34:01;;;;;;;2.45;1.70;;;25.70;54.30;;;;;;5019951;28;20045;-63
2021/08/12 11:36:29;;;;;;;2.60;1.63;;;25.70;54.30;;;;;;5049782;28;20032;-66
2021/08/12 11:39:06;;;;;;;2.30;1.50;;;25.70;54.80;;;;;;5049594;28;20040;-66
2021/08/12 11:41:52;;;;;;;2.97;1.70;;;25.70;54.20;;;;;;5044012;28;20055;-65
2021/08/12 11:44:17;;;;;;;2.55;1.85;;;25.70;54.20;;;;;;5052860;28;20313;-66
2021/08/12 11:46:44;;;;;;;2.15;1.60;;;25.70;54.20;;;;;;5044665;28;20033;-62
2021/08/12 11:49:16;;;;;;;2.83;1.92;;;25.70;54.20;;;;;;5043994;28;20075;-64
2021/08/12 11:51:42;;;;;;;2.17;1.63;;;25.70;54.20;;;;;;5046256;28;20029;-65
2021/08/12 11:54:10;;;;;;;2.30;1.55;;;25.70;54.20;;;;;;5044164;28;20039;-62
2021/08/12 11:56:37;;;;;;;2.40;1.77;;;25.70;54.20;;;;;;5043405;28;20049;-63
2021/08/12 11:59:04;;;;;;;2.00;1.50;;;25.70;54.20;;;;;;5043840;28;20033;-65
2021/08/12 12:01:35;;;;;;;2.83;1.75;;;25.70;54.20;;;;;;5044327;28;20483;-66
2021/08/12 12:04:01;;;;;;;2.97;1.55;;;25.70;54.70;;;;;;5043576;28;20035;-66
2021/08/12 12:06:30;;;;;;;2.40;1.60;;;25.70;54.20;;;;;;5044015;28;20048;-66
2021/08/12 12:08:55;;;;;;;2.50;1.80;;;25.70;54.20;;;;;;5041459;28;20088;-65
2021/08/12 12:11:21;;;;;;;2.88;1.88;;;25.70;54.20;;;;;;5037896;28;20129;-66
2021/08/12 12:13:47;;;;;;;2.38;1.80;;;25.80;54.20;;;;;;5043268;28;20425;-63
2021/08/12 12:16:12;;;;;;;2.50;1.80;;;25.70;54.20;;;;;;5037476;28;20034;-63
2021/08/12 12:18:41;;;;;;;2.33;1.60;;;25.80;54.20;;;;;;5037231;28;20539;-62
2021/08/12 12:21:17;;;;;;;2.47;1.50;;;25.70;54.10;;;;;;5033048;28;20044;-62
2021/08/12 12:23:46;;;;;;;3.53;1.83;;;25.70;54.10;;;;;;5040013;28;20021;-66
2021/08/12 12:26:24;;;;;;;2.88;1.95;;;25.80;54.20;;;;;;5039321;28;20033;-63
2021/08/12 12:28:50;;;;;;;2.83;1.67;;;25.80;54.20;;;;;;5036597;28;20527;-63
2021/08/12 12:31:21;;;;;;;2.50;1.80;;;25.80;54.20;;;;;;5030152;28;20068;-64
2021/08/12 12:33:57;;;;;;;2.63;1.83;;;25.80;54.20;;;;;;5039476;28;20481;-66
2021/08/12 12:36:23;;;;;;;2.65;1.90;;;25.80;54.10;;;;;;5039539;28;20111;-60
2021/08/12 12:38:51;;;;;;;3.05;2.08;;;25.80;54.10;;;;;;5046847;28;20127;-65
2021/08/12 12:41:17;;;;;;;2.80;1.80;;;25.80;54.20;;;;;;5035832;28;20025;-63
2021/08/12 12:43:42;;;;;;;2.28;1.70;;;25.80;54.10;;;;;;5032259;28;20037;-67
2021/08/12 12:46:08;;;;;;;3.05;1.70;;;25.80;54.10;;;;;;5041130;28;20322;-66
2021/08/12 12:48:39;;;;;;;2.83;1.90;;;25.80;54.10;;;;;;5028400;28;20392;-62
2021/08/12 12:51:06;;;;;;;2.45;1.70;;;25.80;54.20;;;;;;5039517;28;20105;-63
2021/08/12 12:53:40;;;;;;;2.58;1.75;;;25.80;54.20;;;;;;5038522;28;20043;-61